E80

Alexander Municipal Airport

Belen, New Mexico, USA
METAR KE80 210935Z AUTO 28007KT 10SM CLR 04/M02 A3009 RMK AO2 T00351020
Observed Flight Rules
Apr-21 @ 09:35 UTC (8 minutes ago) Visual Flight Rules
Wind Visibility Clouds
280° at 7 knots 10 miles
  • Clear skies
Temperatures Readings
Current 4°C / 39°F
Dewpoint -2°C / 28°F
Humidity 65%
Altimeter 30.09" Hg
Pressure 1019 hPa
Elevation 1582
METAR KE80 210935Z AUTO 28007KT 10SM CLR 04/M02 A3009 RMK AO2 T00351020
Observed Flight Rules
Apr-21 @ 09:35 UTC
(8 minutes ago)
VFR
Wind Visibility
280° at 7 knots 10 miles
Clouds
  • Clear skies
Temperature Dewpoint
4°C / 39°F -2°C / 28°F
Humidity Altimeter Pressure
65% 30.09" Hg 1019 hPa